createdAt,value
2023-06-07T00:00:28.752Z,22.40
2023-06-07T00:02:58.325Z,22.80
2023-06-07T00:05:25.600Z,23.70
2023-06-07T00:07:52.962Z,22.35
2023-06-07T00:10:20.093Z,21.42
2023-06-07T00:12:47.140Z,23.92
2023-06-07T00:15:14.261Z,23.52
2023-06-07T00:17:44.416Z,21.77
2023-06-07T00:20:12.662Z,23.08
2023-06-07T00:22:39.928Z,21.95
2023-06-07T00:25:09.692Z,21.98
2023-06-07T00:27:37.254Z,20.13
2023-06-07T00:30:05.253Z,21.45
2023-06-07T00:32:33.076Z,23.38
2023-06-07T00:35:00.343Z,21.88
2023-06-07T00:37:27.418Z,21.30
2023-06-07T00:39:54.514Z,20.10
2023-06-07T00:42:21.663Z,19.40
2023-06-07T00:44:48.730Z,18.88
2023-06-07T00:47:15.888Z,17.02
2023-06-07T00:49:45.353Z,17.63
2023-06-07T00:52:13.486Z,15.23
2023-06-07T00:54:41.233Z,15.65
2023-06-07T00:57:08.559Z,15.68
2023-06-07T00:59:36.746Z,14.05
2023-06-07T01:02:04.129Z,14.88
2023-06-07T01:04:32.151Z,15.18
2023-06-07T01:07:02.746Z,13.88
2023-06-07T01:09:30.798Z,13.93
2023-06-07T01:11:58.399Z,15.27
2023-06-07T01:14:26.608Z,14.10
2023-06-07T01:16:54.794Z,13.68
2023-06-07T01:19:29.693Z,13.88
2023-06-07T01:22:08.075Z,14.63
2023-06-07T01:24:37.004Z,14.40
2023-06-07T01:27:08.635Z,13.40
2023-06-07T01:29:36.389Z,14.85
2023-06-07T01:32:08.242Z,13.57
2023-06-07T01:34:36.613Z,13.45
2023-06-07T01:37:04.380Z,14.52
2023-06-07T01:39:33.195Z,13.45
2023-06-07T01:42:01.350Z,13.93
2023-06-07T01:44:30.492Z,13.55
2023-06-07T01:46:58.052Z,12.77
2023-06-07T01:49:25.071Z,12.30
2023-06-07T01:51:52.177Z,13.38
2023-06-07T01:54:19.620Z,12.07
2023-06-07T01:57:08.170Z,12.70
2023-06-07T02:00:23.192Z,12.95
2023-06-07T02:02:55.017Z,13.40
2023-06-07T02:05:38.677Z,12.25
2023-06-07T02:08:18.484Z,12.43
2023-06-07T02:10:47.370Z,13.55
2023-06-07T02:13:16.154Z,12.98
2023-06-07T02:15:47.097Z,12.43
2023-06-07T02:18:19.807Z,12.82
2023-06-07T02:20:46.980Z,14.10
2023-06-07T02:23:14.482Z,13.48
2023-06-07T02:25:41.520Z,12.73
2023-06-07T02:28:08.883Z,13.15
2023-06-07T02:30:36.417Z,12.93
2023-06-07T02:33:03.852Z,13.10
2023-06-07T02:35:30.945Z,14.32
2023-06-07T02:37:58.033Z,11.73
2023-06-07T02:40:25.106Z,13.20
2023-06-07T02:42:52.219Z,12.63
2023-06-07T02:45:19.458Z,12.00
2023-06-07T02:47:47.102Z,12.70
2023-06-07T02:50:14.300Z,12.60
2023-06-07T02:52:42.761Z,11.60
2023-06-07T02:55:10.141Z,12.25
2023-06-07T02:57:37.511Z,12.32
2023-06-07T03:00:10.128Z,13.30
2023-06-07T03:02:37.751Z,12.75
2023-06-07T03:05:06.601Z,12.07
2023-06-07T03:07:35.873Z,13.25
2023-06-07T03:10:07.034Z,14.10
2023-06-07T03:12:34.917Z,13.95
2023-06-07T03:15:01.956Z,13.68
2023-06-07T03:17:29.808Z,14.43
2023-06-07T03:19:57.885Z,15.00
2023-06-07T03:22:24.927Z,13.15
2023-06-07T03:24:53.479Z,15.02
2023-06-07T03:27:25.174Z,14.02
2023-06-07T03:29:52.409Z,13.63
2023-06-07T03:32:19.480Z,14.50
2023-06-07T03:34:46.625Z,13.20
2023-06-07T03:37:13.719Z,14.15
2023-06-07T03:39:40.748Z,14.73
2023-06-07T03:42:08.430Z,15.48
2023-06-07T03:44:35.499Z,14.48
2023-06-07T03:47:02.899Z,15.75
2023-06-07T03:49:29.941Z,13.88
2023-06-07T03:51:57.165Z,14.88
2023-06-07T03:54:24.235Z,16.20
2023-06-07T03:56:51.369Z,14.82
2023-06-07T03:59:20.534Z,15.20
2023-06-07T04:01:49.523Z,16.38
2023-06-07T04:04:16.792Z,15.75
2023-06-07T04:06:44.468Z,16.17
2023-06-07T04:09:11.718Z,14.98
2023-06-07T04:11:38.791Z,16.10
2023-06-07T04:14:05.919Z,15.45
2023-06-07T04:16:33.071Z,15.00
2023-06-07T04:19:02.278Z,16.25
2023-06-07T04:21:29.787Z,15.48
2023-06-07T04:23:58.210Z,15.65
2023-06-07T04:26:25.482Z,15.55
2023-06-07T04:28:52.530Z,17.30
2023-06-07T04:31:23.533Z,15.45
2023-06-07T04:33:50.745Z,17.33
2023-06-07T04:36:19.991Z,17.63
2023-06-07T04:38:57.726Z,17.10
2023-06-07T04:41:33.870Z,15.68
2023-06-07T04:44:01.880Z,17.08
2023-06-07T04:46:29.788Z,15.52
2023-06-07T04:48:57.227Z,15.85
2023-06-07T04:51:27.301Z,15.77
2023-06-07T04:54:02.644Z,16.23
2023-06-07T04:58:57.813Z,14.60
2023-06-07T05:01:25.551Z,14.98
2023-06-07T05:04:01.236Z,15.02
2023-06-07T05:08:57.186Z,13.70
2023-06-07T05:11:24.414Z,14.50
2023-06-07T05:13:51.480Z,15.25
2023-06-07T05:16:18.870Z,15.55
2023-06-07T05:18:50.144Z,15.27
2023-06-07T05:21:17.851Z,16.15
2023-06-07T05:23:45.532Z,15.60
2023-06-07T05:26:12.966Z,15.68
2023-06-07T05:28:40.040Z,15.98
2023-06-07T05:31:09.634Z,17.15
2023-06-07T05:33:38.320Z,15.45
2023-06-07T05:36:05.775Z,16.05
2023-06-07T05:38:32.843Z,16.75
2023-06-07T05:41:00.009Z,15.95
2023-06-07T05:43:27.054Z,16.30
2023-06-07T05:45:54.126Z,15.80
2023-06-07T05:48:21.282Z,16.10
2023-06-07T05:50:48.767Z,17.08
2023-06-07T05:53:16.808Z,15.98
2023-06-07T05:55:46.330Z,18.73
2023-06-07T05:58:13.504Z,16.92
2023-06-07T06:00:41.831Z,16.67
2023-06-07T06:03:09.661Z,15.82
2023-06-07T06:05:36.881Z,17.02
2023-06-07T06:08:04.214Z,16.13
2023-06-07T06:10:33.118Z,15.38
2023-06-07T06:13:02.771Z,16.45
2023-06-07T06:15:30.083Z,16.20
2023-06-07T06:17:57.256Z,16.75
2023-06-07T06:20:24.379Z,17.48
2023-06-07T06:22:51.539Z,17.63
2023-06-07T06:25:18.692Z,16.95
2023-06-07T06:27:46.029Z,18.25
2023-06-07T06:30:13.449Z,17.70
2023-06-07T06:32:41.269Z,18.05
2023-06-07T06:35:09.294Z,18.35
2023-06-07T06:37:36.952Z,19.30
2023-06-07T06:40:06.139Z,18.92
2023-06-07T06:42:33.574Z,17.98
2023-06-07T06:45:01.032Z,17.95
2023-06-07T06:47:28.175Z,18.50
2023-06-07T06:49:55.402Z,18.67
2023-06-07T06:52:22.533Z,18.13
2023-06-07T06:54:49.676Z,19.30
2023-06-07T06:57:16.739Z,19.70
2023-06-07T06:59:43.862Z,19.83
2023-06-07T07:02:12.291Z,20.75
2023-06-07T07:04:39.483Z,20.15
2023-06-07T07:07:07.078Z,20.17
2023-06-07T07:09:34.730Z,18.13
2023-06-07T07:12:01.867Z,18.52
2023-06-07T07:14:28.913Z,20.50
2023-06-07T07:16:56.077Z,21.10
2023-06-07T07:19:23.354Z,19.83
2023-06-07T07:21:50.470Z,20.38
2023-06-07T07:24:17.822Z,22.15
2023-06-07T07:26:45.102Z,19.55
2023-06-07T07:29:12.604Z,20.08
2023-06-07T07:31:40.227Z,23.13
2023-06-07T07:34:07.390Z,23.13
2023-06-07T07:36:37.520Z,22.15
2023-06-07T07:39:07.388Z,24.52
2023-06-07T07:41:35.194Z,23.02
2023-06-07T07:44:02.766Z,22.80
2023-06-07T07:46:29.922Z,23.55
2023-06-07T07:48:57.205Z,24.90
2023-06-07T07:51:24.551Z,24.83
2023-06-07T07:53:55.141Z,23.65
2023-06-07T07:56:25.046Z,24.85
2023-06-07T07:58:52.357Z,24.33
2023-06-07T08:01:23.575Z,24.70
2023-06-07T08:03:52.245Z,24.35
2023-06-07T08:06:19.459Z,23.38
2023-06-07T08:08:49.663Z,25.55
2023-06-07T08:11:16.720Z,25.52
2023-06-07T08:13:43.805Z,25.83
2023-06-07T08:16:11.266Z,24.15
2023-06-07T08:18:39.367Z,25.35
2023-06-07T08:21:06.661Z,25.00
2023-06-07T08:23:33.742Z,23.85
2023-06-07T08:26:03.170Z,25.60
2023-06-07T08:28:30.935Z,26.02
2023-06-07T08:30:58.021Z,26.05
2023-06-07T08:33:25.092Z,26.80
2023-06-07T08:35:52.269Z,24.98
2023-06-07T08:38:19.277Z,25.23
2023-06-07T08:40:46.881Z,26.05
2023-06-07T08:43:14.015Z,26.65
2023-06-07T08:45:42.731Z,25.85
2023-06-07T08:48:13.334Z,24.98
2023-06-07T08:50:42.564Z,25.45
2023-06-07T08:53:15.792Z,24.17
2023-06-07T08:55:45.081Z,24.88
2023-06-07T08:58:13.007Z,25.15
2023-06-07T09:00:40.629Z,25.00
2023-06-07T09:03:07.905Z,26.45
2023-06-07T09:05:35.025Z,27.38
2023-06-07T09:08:05.110Z,28.55
2023-06-07T09:10:32.298Z,27.63
2023-06-07T09:12:59.383Z,28.45
2023-06-07T09:15:28.348Z,26.02
2023-06-07T09:18:00.993Z,27.30
2023-06-07T09:20:34.489Z,27.92
2023-06-07T09:23:14.398Z,26.70
2023-06-07T09:25:47.814Z,27.75
2023-06-07T09:28:16.294Z,26.70
2023-06-07T09:30:58.124Z,25.08
2023-06-07T09:33:31.055Z,27.35
2023-06-07T09:36:14.380Z,29.65
2023-06-07T09:38:42.975Z,30.70
2023-06-07T09:41:14.346Z,30.33
2023-06-07T09:43:51.806Z,29.88
2023-06-07T09:46:20.584Z,29.60
2023-06-07T09:48:50.080Z,27.40
2023-06-07T09:51:19.621Z,24.83
2023-06-07T09:54:13.264Z,22.08
2023-06-07T09:56:41.477Z,21.20
2023-06-07T09:59:17.772Z,23.95
2023-06-07T10:01:48.450Z,22.60
2023-06-07T10:04:15.780Z,22.27
2023-06-07T10:06:46.669Z,23.58
2023-06-07T10:09:17.610Z,24.15
2023-06-07T10:11:47.697Z,21.27
2023-06-07T10:14:20.015Z,19.48
2023-06-07T10:17:00.044Z,19.15
2023-06-07T10:19:48.400Z,20.60
2023-06-07T10:22:25.089Z,17.20
2023-06-07T10:25:24.565Z,17.27
2023-06-07T10:28:22.924Z,17.25
2023-06-07T10:30:56.652Z,19.13
2023-06-07T10:33:26.491Z,20.25
2023-06-07T10:35:54.898Z,19.73
2023-06-07T10:38:22.000Z,19.10
2023-06-07T10:40:49.204Z,19.60
2023-06-07T10:43:16.532Z,22.50
2023-06-07T10:45:43.768Z,25.95
2023-06-07T10:48:36.438Z,24.85
2023-06-07T10:51:03.896Z,23.23
2023-06-07T10:53:53.851Z,23.13
2023-06-07T10:56:52.172Z,21.35
2023-06-07T10:59:23.848Z,23.20
2023-06-07T11:01:53.565Z,22.27
2023-06-07T11:04:36.328Z,22.95
2023-06-07T11:07:42.479Z,21.52
2023-06-07T11:10:09.764Z,21.77
2023-06-07T11:12:37.471Z,22.70
2023-06-07T11:15:21.591Z,25.27
2023-06-07T11:18:06.938Z,26.45
2023-06-07T11:20:37.594Z,23.30
2023-06-07T11:23:35.347Z,21.75
2023-06-07T11:26:16.070Z,15.18
2023-06-07T11:28:43.325Z,15.25
2023-06-07T11:31:13.189Z,17.92
2023-06-07T11:33:44.683Z,17.98
2023-06-07T11:36:12.368Z,16.25
2023-06-07T11:38:40.723Z,13.95
2023-06-07T11:41:07.981Z,14.25
2023-06-07T11:43:35.253Z,12.73
2023-06-07T11:46:02.444Z,12.07
2023-06-07T11:48:31.150Z,13.90
2023-06-07T11:51:00.595Z,13.38
2023-06-07T11:53:30.668Z,12.93
2023-06-07T11:56:02.597Z,11.73
2023-06-07T11:58:31.283Z,11.05
2023-06-07T12:00:59.137Z,10.52
2023-06-07T12:03:27.753Z,10.57
2023-06-07T12:05:55.546Z,10.85
2023-06-07T12:08:29.118Z,12.18
2023-06-07T12:10:57.027Z,12.70
2023-06-07T12:13:24.834Z,13.75
2023-06-07T12:15:57.557Z,13.02
2023-06-07T12:18:30.414Z,12.63
2023-06-07T12:21:11.139Z,12.23
2023-06-07T12:23:45.677Z,12.52
2023-06-07T12:26:16.821Z,13.98
2023-06-07T12:28:45.006Z,11.85
2023-06-07T12:31:21.641Z,13.82
2023-06-07T12:34:09.929Z,13.90
2023-06-07T12:36:39.973Z,13.80
2023-06-07T12:39:12.387Z,14.30
2023-06-07T12:41:40.320Z,13.32
2023-06-07T12:44:11.276Z,14.40
2023-06-07T12:46:38.657Z,14.02
2023-06-07T12:49:06.499Z,14.07
2023-06-07T12:51:34.544Z,14.25
2023-06-07T12:54:02.180Z,14.18
2023-06-07T12:56:30.560Z,14.15
2023-06-07T12:58:58.014Z,12.65
2023-06-07T13:01:25.696Z,13.27
2023-06-07T13:03:53.536Z,12.60
2023-06-07T13:06:21.910Z,11.13
2023-06-07T13:09:03.001Z,11.15
2023-06-07T13:11:30.158Z,10.95
2023-06-07T13:13:57.294Z,11.65
2023-06-07T13:16:24.451Z,10.48
2023-06-07T13:18:52.541Z,10.82
2023-06-07T13:21:19.672Z,11.15
2023-06-07T13:23:46.736Z,10.55
2023-06-07T13:26:14.683Z,10.82
2023-06-07T13:28:45.290Z,11.15
2023-06-07T13:31:13.187Z,11.90
2023-06-07T13:33:42.037Z,10.70
2023-06-07T13:36:09.440Z,10.80
2023-06-07T13:38:38.683Z,11.65
2023-06-07T13:41:06.515Z,13.48
2023-06-07T13:46:03.981Z,13.68
2023-06-07T13:48:32.354Z,11.88
2023-06-07T13:50:59.861Z,12.85
2023-06-07T13:53:28.033Z,13.35
2023-06-07T13:55:57.554Z,13.50
2023-06-07T13:58:25.896Z,13.10
2023-06-07T14:00:53.032Z,13.60
2023-06-07T14:03:21.235Z,12.18
2023-06-07T14:05:48.372Z,12.00
2023-06-07T14:08:15.607Z,12.30
2023-06-07T14:10:42.701Z,13.15
2023-06-07T14:13:09.784Z,13.98
2023-06-07T14:15:36.933Z,14.50
2023-06-07T14:18:04.253Z,13.55
2023-06-07T14:20:31.417Z,13.15
2023-06-07T14:22:58.729Z,12.88
2023-06-07T14:25:26.074Z,12.43
2023-06-07T14:27:53.175Z,13.98
2023-06-07T14:30:20.627Z,15.02
2023-06-07T14:32:48.055Z,14.05
2023-06-07T14:35:18.008Z,13.82
2023-06-07T14:37:45.166Z,13.18
2023-06-07T14:48:47.147Z,14.40
2023-06-07T14:51:16.460Z,13.57
2023-06-07T14:53:43.482Z,13.07
2023-06-07T14:56:10.564Z,12.50
2023-06-07T14:58:37.687Z,13.15
2023-06-07T15:01:04.849Z,11.73
2023-06-07T15:03:32.448Z,6.63
2023-06-07T15:05:59.496Z,5.00
2023-06-07T15:08:29.399Z,4.88
2023-06-07T15:10:58.971Z,5.00
2023-06-07T15:13:26.359Z,4.95
2023-06-07T15:15:53.510Z,5.47
2023-06-07T15:18:21.860Z,5.35
2023-06-07T15:20:49.033Z,5.65
2023-06-07T15:23:16.185Z,5.82
2023-06-07T15:25:43.231Z,6.63
2023-06-07T15:28:10.315Z,5.72
2023-06-07T15:30:37.388Z,6.78
2023-06-07T15:33:05.157Z,6.97
2023-06-07T15:35:32.311Z,7.05
2023-06-07T15:37:59.385Z,7.30
2023-06-07T15:40:26.429Z,8.20
2023-06-07T15:42:53.578Z,7.88
2023-06-07T15:45:20.679Z,8.10
2023-06-07T15:48:02.262Z,8.90
2023-06-07T15:50:30.449Z,8.30
2023-06-07T15:52:59.039Z,8.80
2023-06-07T15:55:28.720Z,8.52
2023-06-07T15:57:56.513Z,8.10
2023-06-07T16:00:37.086Z,8.25
2023-06-07T16:03:06.314Z,8.18
2023-06-07T16:05:33.607Z,8.00
2023-06-07T16:08:12.456Z,7.85
2023-06-07T16:10:40.911Z,8.32
2023-06-07T16:13:08.132Z,7.32
2023-06-07T16:15:35.600Z,7.93
2023-06-07T16:18:02.838Z,8.15
2023-06-07T16:20:29.964Z,8.25
2023-06-07T16:22:57.051Z,7.85
2023-06-07T16:25:24.477Z,7.38
2023-06-07T16:27:51.724Z,7.07
2023-06-07T16:30:19.150Z,7.38
2023-06-07T16:32:46.775Z,8.15
2023-06-07T16:35:14.062Z,7.40
2023-06-07T16:37:41.117Z,7.70
2023-06-07T16:40:09.329Z,8.18
2023-06-07T16:42:36.828Z,7.47
2023-06-07T16:45:04.205Z,7.63
2023-06-07T16:47:31.696Z,7.75
2023-06-07T16:49:58.802Z,7.90
2023-06-07T16:52:25.851Z,8.13
2023-06-07T16:54:53.016Z,8.10
2023-06-07T16:57:20.678Z,7.93
2023-06-07T16:59:47.937Z,8.27
2023-06-07T17:02:15.054Z,7.65
2023-06-07T17:04:42.300Z,7.85
2023-06-07T17:07:09.555Z,7.35
2023-06-07T17:09:36.677Z,8.02
2023-06-07T17:12:04.095Z,8.52
2023-06-07T17:14:31.150Z,8.77
2023-06-07T17:16:58.205Z,9.13
2023-06-07T17:19:25.543Z,9.05
2023-06-07T17:21:52.645Z,9.30
2023-06-07T17:24:20.946Z,10.13
2023-06-07T17:26:48.190Z,9.10
2023-06-07T17:29:28.739Z,9.57
2023-06-07T17:31:56.734Z,9.90
2023-06-07T17:34:23.826Z,9.60
2023-06-07T17:36:51.040Z,9.68
2023-06-07T17:39:19.776Z,8.93
2023-06-07T17:41:46.999Z,9.40
2023-06-07T17:44:14.111Z,9.45
2023-06-07T17:46:41.631Z,9.63
2023-06-07T17:49:08.719Z,9.80
2023-06-07T17:51:37.181Z,9.57
2023-06-07T17:54:05.828Z,9.40
2023-06-07T17:56:33.017Z,9.48
2023-06-07T17:59:00.171Z,9.65
2023-06-07T18:01:27.400Z,10.52
2023-06-07T18:03:55.310Z,10.07
2023-06-07T18:06:27.188Z,10.45
2023-06-07T18:08:54.355Z,10.82
2023-06-07T18:11:21.720Z,11.10
2023-06-07T18:13:48.781Z,11.13
2023-06-07T18:16:15.926Z,10.77
2023-06-07T18:18:43.083Z,11.30
2023-06-07T18:21:11.181Z,11.40
2023-06-07T18:23:38.929Z,11.07
2023-06-07T18:26:07.498Z,11.63
2023-06-07T18:28:34.851Z,10.88
2023-06-07T18:31:02.165Z,11.25
2023-06-07T18:33:30.007Z,11.32
2023-06-07T18:35:57.766Z,11.30
2023-06-07T18:38:26.176Z,9.95
2023-06-07T18:40:53.575Z,10.35
2023-06-07T18:43:21.046Z,10.80
2023-06-07T18:45:48.709Z,11.13
2023-06-07T18:48:17.746Z,10.68
2023-06-07T18:50:45.000Z,11.63
2023-06-07T18:53:12.716Z,12.02
2023-06-07T18:55:40.137Z,11.20
2023-06-07T18:58:09.245Z,12.73
2023-06-07T19:00:37.777Z,13.30
2023-06-07T19:03:05.126Z,14.05
2023-06-07T19:05:32.806Z,16.60
2023-06-07T19:08:00.122Z,14.85
2023-06-07T19:10:27.598Z,15.77
2023-06-07T19:12:54.716Z,15.38
2023-06-07T19:15:21.950Z,14.95
2023-06-07T19:17:49.079Z,15.32
2023-06-07T19:20:17.981Z,14.30
2023-06-07T19:22:47.071Z,14.70
2023-06-07T19:25:14.263Z,14.55
2023-06-07T19:27:42.790Z,14.30
2023-06-07T19:30:10.970Z,13.82
2023-06-07T19:32:38.086Z,13.98
2023-06-07T19:35:06.247Z,13.95
2023-06-07T19:37:34.021Z,13.02
2023-06-07T19:40:08.292Z,12.32
2023-06-07T19:42:39.174Z,12.45
2023-06-07T19:45:09.693Z,11.15
2023-06-07T19:47:37.686Z,12.40
2023-06-07T19:50:07.757Z,11.27
2023-06-07T19:52:35.024Z,12.88
2023-06-07T19:55:02.085Z,11.57
2023-06-07T19:57:29.572Z,11.95
2023-06-07T19:59:56.633Z,12.55
2023-06-07T20:02:23.849Z,12.82
2023-06-07T20:04:50.953Z,13.48
2023-06-07T20:07:18.388Z,12.23
2023-06-07T20:09:45.466Z,12.55
2023-06-07T20:12:12.849Z,12.50
2023-06-07T20:14:41.016Z,11.60
2023-06-07T20:17:10.223Z,12.25
2023-06-07T20:19:37.560Z,11.50
2023-06-07T20:22:05.060Z,12.35
2023-06-07T20:24:32.158Z,12.05
2023-06-07T20:26:59.213Z,11.10
2023-06-07T20:29:26.352Z,11.98
2023-06-07T20:31:56.176Z,12.05
2023-06-07T20:34:24.806Z,12.05
2023-06-07T20:36:54.190Z,12.40
2023-06-07T20:39:22.258Z,12.73
2023-06-07T20:41:50.368Z,12.18
2023-06-07T20:44:18.423Z,12.40
2023-06-07T20:46:46.408Z,12.90
2023-06-07T20:49:14.367Z,12.65
2023-06-07T20:51:42.368Z,13.15
2023-06-07T20:54:10.567Z,12.93
2023-06-07T20:56:38.710Z,13.10
2023-06-07T20:59:06.553Z,13.00
2023-06-07T21:01:35.234Z,14.20
2023-06-07T21:04:02.579Z,12.15
2023-06-07T21:06:30.450Z,13.00
2023-06-07T21:08:57.467Z,13.10
2023-06-07T21:11:27.155Z,13.05
2023-06-07T21:13:54.482Z,13.02
2023-06-07T21:16:21.616Z,13.18
2023-06-07T21:18:48.679Z,13.18
2023-06-07T21:21:15.808Z,13.80
2023-06-07T21:23:43.021Z,13.48
2023-06-07T21:26:10.320Z,13.27
2023-06-07T21:28:37.687Z,14.13
2023-06-07T21:31:04.855Z,13.95
2023-06-07T21:33:32.005Z,13.48
2023-06-07T21:35:59.108Z,15.18
2023-06-07T21:38:26.376Z,15.60
2023-06-07T21:40:53.405Z,15.32
2023-06-07T21:43:23.493Z,15.38
2023-06-07T21:45:50.681Z,14.98
2023-06-07T21:48:17.803Z,15.30
2023-06-07T21:50:44.932Z,15.35
2023-06-07T21:53:12.018Z,16.38
2023-06-07T21:55:39.148Z,14.95
2023-06-07T21:58:06.409Z,16.00
2023-06-07T22:00:33.460Z,15.80
2023-06-07T22:03:00.596Z,15.32
2023-06-07T22:05:27.685Z,15.38
2023-06-07T22:07:54.772Z,16.50
2023-06-07T22:10:21.866Z,14.48
2023-06-07T22:12:54.490Z,16.65
2023-06-07T22:15:22.702Z,14.02
2023-06-07T22:17:54.629Z,15.90
2023-06-07T22:20:24.625Z,20.85
2023-06-07T22:22:52.658Z,15.40
2023-06-07T22:25:31.300Z,15.98
2023-06-07T22:28:13.686Z,15.70
2023-06-07T22:30:42.168Z,16.10
2023-06-07T22:33:10.124Z,15.70
2023-06-07T22:35:38.533Z,16.08
2023-06-07T22:38:07.185Z,14.90
2023-06-07T22:40:37.726Z,15.18
2023-06-07T22:43:05.325Z,15.52
2023-06-07T22:45:32.688Z,15.07
2023-06-07T22:48:11.152Z,15.88
2023-06-07T22:50:43.146Z,16.25
2023-06-07T22:53:15.250Z,15.88
2023-06-07T22:55:43.150Z,16.30
2023-06-07T22:58:10.633Z,15.75
2023-06-07T23:00:38.153Z,15.05
2023-06-07T23:03:08.474Z,15.55
2023-06-07T23:05:36.901Z,16.95
2023-06-07T23:08:04.071Z,15.13
2023-06-07T23:10:36.828Z,15.68
2023-06-07T23:13:10.228Z,15.48
2023-06-07T23:15:42.171Z,14.38
2023-06-07T23:18:12.869Z,14.90
2023-06-07T23:20:41.993Z,14.90
2023-06-07T23:23:11.302Z,15.57
2023-06-07T23:25:39.429Z,15.25
2023-06-07T23:28:06.917Z,16.17
2023-06-07T23:30:34.649Z,16.25
2023-06-07T23:33:02.445Z,15.48
2023-06-07T23:35:29.627Z,14.90
2023-06-07T23:37:56.676Z,15.68
2023-06-07T23:40:24.048Z,13.27
2023-06-07T23:42:54.205Z,14.88
2023-06-07T23:45:22.097Z,14.45
2023-06-07T23:47:49.408Z,14.15
2023-06-07T23:50:16.539Z,14.80
2023-06-07T23:52:43.615Z,14.15
2023-06-07T23:55:10.952Z,16.85
2023-06-07T23:57:38.030Z,15.65
